Aviation Digital Data Service (ADDS)

Output produced by METARs form (0507 UTC 21 January 2019)
found at http://www.aviationweather.gov/metar/data/
 
METAR text: DRRT 201800Z 36004KT CAVOK 28/M04 Q1014
Conditions at: DRRT (TAHOUA , NE) observed 1800 UTC 20 January 2019
Temperature: 28.0°C (82°F)
Dewpoint: -4.0°C (25°F) [RH = 12%]
Pressure (altimeter): 29.94 inches Hg (1014.0 mb)
Winds: from the N (360 degrees) at 5 MPH (4 knots; 2.1 m/s)
Visibility: 6 or more miles (10+ km)
Ceiling: ceiling and visibility are OK
Clouds: unknown
Weather: no significant weather observed at this time

METAR text: DRRT 201700Z 04008KT CAVOK 29/M08 Q1014
Conditions at: DRRT (TAHOUA , NE) observed 1700 UTC 20 January 2019
Temperature: 29.0°C (84°F)
Dewpoint: -8.0°C (18°F) [RH =  8%]
Pressure (altimeter): 29.94 inches Hg (1014.0 mb)
Winds: from the NE (40 degrees) at 9 MPH (8 knots; 4.1 m/s)
Visibility: 6 or more miles (10+ km)
Ceiling: ceiling and visibility are OK
Clouds: unknown
Weather: no significant weather observed at this time

METAR text: DRRT 201600Z 32004KT CAVOK 30/M07 Q1013
Conditions at: DRRT (TAHOUA , NE) observed 1600 UTC 20 January 2019
Temperature: 30.0°C (86°F)
Dewpoint: -7.0°C (19°F) [RH =  9%]
Pressure (altimeter): 29.91 inches Hg (1013.0 mb)
Winds: from the NW (320 degrees) at 5 MPH (4 knots; 2.1 m/s)
Visibility: 6 or more miles (10+ km)
Ceiling: ceiling and visibility are OK
Clouds: unknown
Weather: no significant weather observed at this time

METAR text: DRRT 201500Z 02006KT CAVOK 31/M07 Q1013
Conditions at: DRRT (TAHOUA , NE) observed 1500 UTC 20 January 2019
Temperature: 31.0°C (88°F)
Dewpoint: -7.0°C (19°F) [RH =  8%]
Pressure (altimeter): 29.91 inches Hg (1013.0 mb)
Winds: from the NNE (20 degrees) at 7 MPH (6 knots; 3.1 m/s)
Visibility: 6 or more miles (10+ km)
Ceiling: ceiling and visibility are OK
Clouds: unknown
Weather: no significant weather observed at this time

METAR text: DRRT 201300Z 04008KT CAVOK 29/M08 Q1014
Conditions at: DRRT (TAHOUA , NE) observed 1300 UTC 20 January 2019
Temperature: 29.0°C (84°F)
Dewpoint: -8.0°C (18°F) [RH =  8%]
Pressure (altimeter): 29.94 inches Hg (1014.0 mb)
Winds: from the NE (40 degrees) at 9 MPH (8 knots; 4.1 m/s)
Visibility: 6 or more miles (10+ km)
Ceiling: ceiling and visibility are OK
Clouds: unknown
Weather: no significant weather observed at this time

METAR text: DRRT 201200Z 04008KT CAVOK 28/M14 Q1015
Conditions at: DRRT (TAHOUA , NE) observed 1200 UTC 20 January 2019
Temperature: 28.0°C (82°F)
Dewpoint: -14.0°C ( 7°F) [RH =  5%]
Pressure (altimeter): 29.97 inches Hg (1015.0 mb)
Winds: from the NE (40 degrees) at 9 MPH (8 knots; 4.1 m/s)
Visibility: 6 or more miles (10+ km)
Ceiling: ceiling and visibility are OK
Clouds: unknown
Weather: no significant weather observed at this time

METAR text: DRRT 201100Z 04012KT CAVOK 27/M13 Q1017
Conditions at: DRRT (TAHOUA , NE) observed 1100 UTC 20 January 2019
Temperature: 27.0°C (81°F)
Dewpoint: -13.0°C ( 9°F) [RH =  6%]
Pressure (altimeter): 30.03 inches Hg (1017.0 mb)
Winds: from the NE (40 degrees) at 14 MPH (12 knots; 6.2 m/s)
Visibility: 6 or more miles (10+ km)
Ceiling: ceiling and visibility are OK
Clouds: unknown
Weather: no significant weather observed at this time

METAR text: DRRT 201000Z 04014KT CAVOK 25/M12 Q1017
Conditions at: DRRT (TAHOUA , NE) observed 1000 UTC 20 January 2019
Temperature: 25.0°C (77°F)
Dewpoint: -12.0°C (10°F) [RH =  8%]
Pressure (altimeter): 30.03 inches Hg (1017.0 mb)
Winds: from the NE (40 degrees) at 16 MPH (14 knots; 7.2 m/s)
Visibility: 6 or more miles (10+ km)
Ceiling: ceiling and visibility are OK
Clouds: unknown
Weather: no significant weather observed at this time

METAR text: DRRT 200800Z 04010KT CAVOK 21/M17 Q1017
Conditions at: DRRT (TAHOUA , NE) observed 0800 UTC 20 January 2019
Temperature: 21.0°C (70°F)
Dewpoint: -17.0°C ( 1°F) [RH =  7%]
Pressure (altimeter): 30.03 inches Hg (1017.0 mb)
Winds: from the NE (40 degrees) at 12 MPH (10 knots; 5.1 m/s)
Visibility: 6 or more miles (10+ km)
Ceiling: ceiling and visibility are OK
Clouds: unknown
Weather: no significant weather observed at this time

METAR text: DRRT 200700Z 04008KT CAVOK 19/M13 Q1016
Conditions at: DRRT (TAHOUA , NE) observed 0700 UTC 20 January 2019
Temperature: 19.0°C (66°F)
Dewpoint: -13.0°C ( 9°F) [RH = 10%]
Pressure (altimeter): 30.00 inches Hg (1016.0 mb)
Winds: from the NE (40 degrees) at 9 MPH (8 knots; 4.1 m/s)
Visibility: 6 or more miles (10+ km)
Ceiling: ceiling and visibility are OK
Clouds: unknown
Weather: no significant weather observed at this time

METAR text: DRRT 200600Z 04008KT CAVOK 20/M15 Q1015
Conditions at: DRRT (TAHOUA , NE) observed 0600 UTC 20 January 2019
Temperature: 20.0°C (68°F)
Dewpoint: -15.0°C ( 5°F) [RH =  8%]
Pressure (altimeter): 29.97 inches Hg (1015.0 mb)
Winds: from the NE (40 degrees) at 9 MPH (8 knots; 4.1 m/s)
Visibility: 6 or more miles (10+ km)
Ceiling: ceiling and visibility are OK
Clouds: unknown
Weather: no significant weather observed at this time

METAR text: DRRT 191800Z 32004KT 6000 NSC 31/00 Q1013
Conditions at: DRRT (TAHOUA , NE) observed 1800 UTC 19 January 2019
Temperature: 31.0°C (88°F)
Dewpoint: 0.0°C (32°F) [RH = 14%]
Pressure (altimeter): 29.91 inches Hg (1013.0 mb)
Winds: from the NW (320 degrees) at 5 MPH (4 knots; 2.1 m/s)
Visibility: 4 miles ( 6 km)
Ceiling: at least 12,000 feet AGL
Clouds: sky clear below 12,000 feet AGL
Weather: no significant weather observed at this time